New Orleans, Louisiana
Traffic Map
Current Weather Conditions
New Orleans, Louisiana
Clear
Clear
26°
Feels Like: 27°
Wind Chill: 26° Ceiling: Unl
Heat Index: 27° Visibility: 10mi
Dew Point: 22° Wind: 10mph
Humidity: 81% Direction: 270° (W)
Pressure: 29.93in Gusts: 0mph
Raw Report DataKNEW 310953Z AUTO 27009KT 10SM CLR 26/22 A2993 RMK AO2 SLP129 T02560222
Traffic Incident Summary
Active as of:
Severity:
Category:
InformationThere was an issue retrieving the traffic information for this location. Please try a different location or try again shortly.
Advertisements
Track Severe Weather on mobile